EDSBLKKV

Guest
Details From EDSB - Karlsruhe Baden Baden
To LKKV - Karlovy Vary
Flight Number -
Tags decoded
Created
Modified
Stats Distance 286 nm / 530 km
Max Altitude 0 ft / 0 m
Waypoints 4
Social Downloads 0
Likes 0
Share VATSIM

Download

Looking for another format? Having issues loading an existing format? Contact us
Advertisement - Login to hide

Notes

Requested: EDSB MILKA BAY LKKV

Route

EDSB MILKA BAY LKKV

ID Type Via Altitude Latitude Longitude Leg Dist Tot Dist Heading (true) Name
O EDSB APT - 0 ft / 0 m 48.77926˚ 8.08064˚ - 0 nm - Karlsruhe Baden Baden
MILKA FIX - 0 ft / 0 m 47.83755˚ 9.62418˚ 83 nm 83 nm 132° / 133° -
BAY VOR - 0 ft / 0 m 49.98515˚ 11.63667˚ 151 nm 235 nm 31° / 32° BAYREUTH VOR
O LKKV APT - 0 ft / 0 m 50.20349˚ 12.91446˚ 50 nm 286 nm 75° / 76° Karlovy Vary

Altitude Profile

Advertisement - Login to hide

Weather


0- 5 10 15 20 25 30 35+ Temperature / ° C

Clouds and Precipitation
Forecast for 2017-12-18 18:00 UTC. Updated 2 hours ago

Ground ~20,000 ft ~40,000 ft Winds

EDSB

Details ICAO EDSB (FKB)
Name Karlsruhe Baden Baden
Region Germany - Civil
Timezone Europe/Berlin (UTC+1.0)
Stats Elevation 408 ft / 124 m (AMSL)
Location 48.779257° 8.080642°
Runways 1
Magnetic Variation 2.224° E

METAR

EDSB 181450Z 25003KT 220V280 6000 OVC006 OVC010 02/02 Q1024

Decode

TAF

TAF AMD EDSB 181329Z 1813/1912 VRB03KT 9000 BKN012 TEMPO 1813/1818 BKN009 TEMPO 1818/1908 4500 BR SCT003 BKN006 PROB40 TEMPO 1902/1908 0600 FG BKN003 TEMPO 1908/1912 3500 RASN BKN008

Decode

Departure Runways

ID Width Length Bearing (true) Bearing (mag) Surface Threshold Offset Overrun Length
03 148 ft / 45 m 9,799 ft / 2,987 m 31.69° 29.47° Asphalt 830 ft / 253 m 115 ft / 35 m
21 148 ft / 45 m 9,799 ft / 2,987 m 211.70° 209.48° Asphalt 830 ft / 253 m 115 ft / 35 m

LKKV

Details ICAO LKKV (KLV)
Name Karlovy Vary
Region Czech Republic
Timezone Europe/Prague (UTC+1.0)
Stats Elevation 1,988 ft / 606 m (AMSL)
Location 50.203487° 12.914461°
Runways 2
Magnetic Variation 3.523° E

METAR

LKKV 181500Z 12006KT 9999 SCT017 M05/M06 Q1023 R29///////

Decode

TAF

Not found

Destination Runways

ID Width Length Bearing (true) Bearing (mag) Surface Threshold Offset Overrun Length
11 98 ft / 30 m 7,049 ft / 2,149 m 113.09° 109.57° Asphalt 495 ft / 151 m 0 ft / 0 m
12 98 ft / 30 m 3,351 ft / 1,021 m 113.19° 109.67° Grass 0 ft / 0 m 0 ft / 0 m
29 98 ft / 30 m 7,049 ft / 2,149 m 293.11° 289.59° Asphalt 0 ft / 0 m 0 ft / 0 m
30 98 ft / 30 m 3,351 ft / 1,021 m 293.20° 289.68° Grass 0 ft / 0 m 0 ft / 0 m

Approach Navaids

Runway Type Ident Frequency Range Bearing (true) Bearing (mag) Slope Elevation
29 Localiser KVY 111.55 MHz 18 nm / 33 km 293.13° 289.61° - 1,988 ft / 606 m (AMSL)
29 DME KVY 111.55 MHz 18 nm / 33 km - - - 1,998 ft / 609 m (AMSL)

Popular Alternatives